sensor_id;sensor_type;location;lat;lon;timestamp;P1;durP1;ratioP1;P2;durP2;ratioP2
48845;SDS011;34665;51.886;5.436;2022-10-23T00:00:28;17.00;;;8.23;;
48845;SDS011;34665;51.886;5.436;2022-10-23T00:02:53;20.43;;;8.17;;
48845;SDS011;34665;51.886;5.436;2022-10-23T00:05:21;22.17;;;8.07;;
48845;SDS011;34665;51.886;5.436;2022-10-23T00:07:50;17.13;;;8.43;;
48845;SDS011;34665;51.886;5.436;2022-10-23T00:10:17;21.37;;;8.00;;
48845;SDS011;34665;51.886;5.436;2022-10-23T00:12:44;23.73;;;8.90;;
48845;SDS011;34665;51.886;5.436;2022-10-23T00:15:10;21.75;;;8.50;;
48845;SDS011;34665;51.886;5.436;2022-10-23T00:17:36;14.65;;;7.78;;
48845;SDS011;34665;51.886;5.436;2022-10-23T00:20:02;22.67;;;11.80;;
48845;SDS011;34665;51.886;5.436;2022-10-23T00:22:29;22.20;;;9.10;;
48845;SDS011;34665;51.886;5.436;2022-10-23T00:24:54;20.55;;;9.18;;
48845;SDS011;34665;51.886;5.436;2022-10-23T00:27:20;16.50;;;8.27;;
48845;SDS011;34665;51.886;5.436;2022-10-23T00:29:45;25.93;;;8.87;;
48845;SDS011;34665;51.886;5.436;2022-10-23T00:32:11;21.98;;;8.65;;
48845;SDS011;34665;51.886;5.436;2022-10-23T00:34:37;15.38;;;8.90;;
48845;SDS011;34665;51.886;5.436;2022-10-23T00:37:02;23.08;;;9.65;;
48845;SDS011;34665;51.886;5.436;2022-10-23T00:39:28;12.63;;;8.32;;
48845;SDS011;34665;51.886;5.436;2022-10-23T00:41:53;14.57;;;8.00;;
48845;SDS011;34665;51.886;5.436;2022-10-23T00:46:45;19.50;;;8.63;;
48845;SDS011;34665;51.886;5.436;2022-10-23T00:49:11;15.57;;;8.82;;
48845;SDS011;34665;51.886;5.436;2022-10-23T00:51:38;16.10;;;8.45;;
48845;SDS011;34665;51.886;5.436;2022-10-23T00:54:06;22.90;;;7.90;;
48845;SDS011;34665;51.886;5.436;2022-10-23T00:56:32;21.17;;;9.13;;
48845;SDS011;34665;51.886;5.436;2022-10-23T00:59:02;20.70;;;8.80;;
48845;SDS011;34665;51.886;5.436;2022-10-23T01:01:27;15.68;;;8.05;;
48845;SDS011;34665;51.886;5.436;2022-10-23T01:03:53;17.80;;;8.50;;
48845;SDS011;34665;51.886;5.436;2022-10-23T01:09:41;23.43;;;8.70;;
48845;SDS011;34665;51.886;5.436;2022-10-23T01:11:53;20.30;;;9.60;;
48845;SDS011;34665;51.886;5.436;2022-10-23T01:14:33;14.80;;;8.53;;
48845;SDS011;34665;51.886;5.436;2022-10-23T01:17:05;17.40;;;8.77;;
48845;SDS011;34665;51.886;5.436;2022-10-23T01:19:51;17.67;;;8.00;;
48845;SDS011;34665;51.886;5.436;2022-10-23T01:25:28;22.93;;;8.87;;
48845;SDS011;34665;51.886;5.436;2022-10-23T01:28:00;21.13;;;8.70;;
48845;SDS011;34665;51.886;5.436;2022-10-23T01:30:29;19.87;;;8.33;;
48845;SDS011;34665;51.886;5.436;2022-10-23T01:33:00;21.70;;;9.07;;
48845;SDS011;34665;51.886;5.436;2022-10-23T01:36:20;20.00;;;8.47;;
48845;SDS011;34665;51.886;5.436;2022-10-23T01:38:32;18.43;;;8.50;;
48845;SDS011;34665;51.886;5.436;2022-10-23T01:44:13;22.40;;;8.03;;
48845;SDS011;34665;51.886;5.436;2022-10-23T01:46:43;17.73;;;8.73;;
48845;SDS011;34665;51.886;5.436;2022-10-23T01:49:12;17.73;;;9.17;;
48845;SDS011;34665;51.886;5.436;2022-10-23T01:51:46;15.47;;;9.00;;
48845;SDS011;34665;51.886;5.436;2022-10-23T01:54:15;22.67;;;8.50;;
48845;SDS011;34665;51.886;5.436;2022-10-23T01:56:44;19.17;;;8.33;;
48845;SDS011;34665;51.886;5.436;2022-10-23T01:59:14;23.77;;;9.20;;
48845;SDS011;34665;51.886;5.436;2022-10-23T02:01:46;17.20;;;8.33;;
48845;SDS011;34665;51.886;5.436;2022-10-23T02:04:17;23.90;;;9.13;;
48845;SDS011;34665;51.886;5.436;2022-10-23T02:06:49;20.20;;;8.83;;
48845;SDS011;34665;51.886;5.436;2022-10-23T02:09:14;20.05;;;8.95;;
48845;SDS011;34665;51.886;5.436;2022-10-23T02:11:44;30.97;;;9.43;;
48845;SDS011;34665;51.886;5.436;2022-10-23T02:16:56;24.97;;;9.93;;
48845;SDS011;34665;51.886;5.436;2022-10-23T02:19:46;24.27;;;9.57;;
48845;SDS011;34665;51.886;5.436;2022-10-23T02:22:29;21.07;;;10.20;;
48845;SDS011;34665;51.886;5.436;2022-10-23T02:25:11;20.63;;;9.57;;
48845;SDS011;34665;51.886;5.436;2022-10-23T02:27:49;20.53;;;10.10;;
48845;SDS011;34665;51.886;5.436;2022-10-23T02:30:21;21.13;;;10.20;;
48845;SDS011;34665;51.886;5.436;2022-10-23T02:33:01;23.07;;;10.63;;
48845;SDS011;34665;51.886;5.436;2022-10-23T02:35:28;20.33;;;10.33;;
48845;SDS011;34665;51.886;5.436;2022-10-23T02:38:02;22.43;;;10.53;;
48845;SDS011;34665;51.886;5.436;2022-10-23T02:40:32;28.27;;;11.43;;
48845;SDS011;34665;51.886;5.436;2022-10-23T02:45:56;18.47;;;11.23;;
48845;SDS011;34665;51.886;5.436;2022-10-23T02:48:31;25.53;;;11.00;;
48845;SDS011;34665;51.886;5.436;2022-10-23T02:51:09;23.90;;;11.07;;
48845;SDS011;34665;51.886;5.436;2022-10-23T02:59:41;29.00;;;11.33;;
48845;SDS011;34665;51.886;5.436;2022-10-23T03:02:23;24.77;;;11.07;;
48845;SDS011;34665;51.886;5.436;2022-10-23T03:04:53;24.60;;;11.10;;
48845;SDS011;34665;51.886;5.436;2022-10-23T03:07:24;24.50;;;10.10;;
48845;SDS011;34665;51.886;5.436;2022-10-23T03:09:56;24.97;;;10.83;;
48845;SDS011;34665;51.886;5.436;2022-10-23T03:12:22;27.67;;;12.03;;
48845;SDS011;34665;51.886;5.436;2022-10-23T03:14:47;22.13;;;9.45;;
48845;SDS011;34665;51.886;5.436;2022-10-23T03:17:14;17.88;;;10.73;;
48845;SDS011;34665;51.886;5.436;2022-10-23T03:19:39;15.07;;;9.32;;
48845;SDS011;34665;51.886;5.436;2022-10-23T03:22:05;19.00;;;10.17;;
48845;SDS011;34665;51.886;5.436;2022-10-23T03:24:30;21.27;;;10.93;;
48845;SDS011;34665;51.886;5.436;2022-10-23T03:26:56;23.48;;;9.45;;
48845;SDS011;34665;51.886;5.436;2022-10-23T03:29:28;22.63;;;9.67;;
48845;SDS011;34665;51.886;5.436;2022-10-23T03:31:54;21.15;;;10.13;;
48845;SDS011;34665;51.886;5.436;2022-10-23T03:34:20;23.88;;;9.93;;
48845;SDS011;34665;51.886;5.436;2022-10-23T03:36:46;18.63;;;9.45;;
48845;SDS011;34665;51.886;5.436;2022-10-23T03:39:12;24.40;;;9.53;;
48845;SDS011;34665;51.886;5.436;2022-10-23T03:41:40;18.10;;;10.63;;
48845;SDS011;34665;51.886;5.436;2022-10-23T03:44:06;23.27;;;10.13;;
48845;SDS011;34665;51.886;5.436;2022-10-23T03:46:31;25.93;;;9.03;;
48845;SDS011;34665;51.886;5.436;2022-10-23T03:48:57;19.87;;;8.70;;
48845;SDS011;34665;51.886;5.436;2022-10-23T03:51:23;16.25;;;8.73;;
48845;SDS011;34665;51.886;5.436;2022-10-23T03:53:49;17.42;;;8.73;;
48845;SDS011;34665;51.886;5.436;2022-10-23T03:56:15;21.98;;;8.90;;
48845;SDS011;34665;51.886;5.436;2022-10-23T03:58:43;18.47;;;8.80;;
48845;SDS011;34665;51.886;5.436;2022-10-23T04:01:09;25.77;;;9.13;;
48845;SDS011;34665;51.886;5.436;2022-10-23T04:03:35;21.60;;;8.40;;
48845;SDS011;34665;51.886;5.436;2022-10-23T04:06:01;22.63;;;8.67;;
48845;SDS011;34665;51.886;5.436;2022-10-23T04:08:26;18.87;;;8.57;;
48845;SDS011;34665;51.886;5.436;2022-10-23T04:10:53;17.70;;;7.87;;
48845;SDS011;34665;51.886;5.436;2022-10-23T04:13:24;14.57;;;7.83;;
48845;SDS011;34665;51.886;5.436;2022-10-23T04:15:51;15.43;;;7.65;;
48845;SDS011;34665;51.886;5.436;2022-10-23T04:18:18;18.83;;;7.80;;
48845;SDS011;34665;51.886;5.436;2022-10-23T04:20:49;16.83;;;7.70;;
48845;SDS011;34665;51.886;5.436;2022-10-23T04:23:15;23.03;;;8.00;;
48845;SDS011;34665;51.886;5.436;2022-10-23T04:25:42;14.80;;;7.07;;
48845;SDS011;34665;51.886;5.436;2022-10-23T04:28:08;15.73;;;7.75;;
48845;SDS011;34665;51.886;5.436;2022-10-23T04:30:37;20.40;;;7.47;;
48845;SDS011;34665;51.886;5.436;2022-10-23T04:33:04;13.93;;;7.30;;
48845;SDS011;34665;51.886;5.436;2022-10-23T04:35:30;25.63;;;7.47;;
48845;SDS011;34665;51.886;5.436;2022-10-23T04:37:55;15.47;;;6.97;;
48845;SDS011;34665;51.886;5.436;2022-10-23T04:40:22;16.30;;;6.90;;
48845;SDS011;34665;51.886;5.436;2022-10-23T04:42:48;24.50;;;7.43;;
48845;SDS011;34665;51.886;5.436;2022-10-23T04:45:15;17.35;;;7.03;;
48845;SDS011;34665;51.886;5.436;2022-10-23T04:47:41;12.43;;;6.47;;
48845;SDS011;34665;51.886;5.436;2022-10-23T04:50:08;18.30;;;7.20;;
48845;SDS011;34665;51.886;5.436;2022-10-23T04:53:07;15.13;;;6.63;;
48845;SDS011;34665;51.886;5.436;2022-10-23T04:55:53;13.77;;;6.70;;
48845;SDS011;34665;51.886;5.436;2022-10-23T05:00:56;21.80;;;7.30;;
48845;SDS011;34665;51.886;5.436;2022-10-23T05:03:24;19.03;;;7.30;;
48845;SDS011;34665;51.886;5.436;2022-10-23T05:05:53;17.33;;;7.07;;
48845;SDS011;34665;51.886;5.436;2022-10-23T05:08:27;15.27;;;6.47;;
48845;SDS011;34665;51.886;5.436;2022-10-23T05:11:13;19.50;;;7.10;;
48845;SDS011;34665;51.886;5.436;2022-10-23T05:13:43;18.47;;;7.17;;
48845;SDS011;34665;51.886;5.436;2022-10-23T05:16:11;21.03;;;7.93;;
48845;SDS011;34665;51.886;5.436;2022-10-23T05:18:46;17.70;;;7.10;;
48845;SDS011;34665;51.886;5.436;2022-10-23T05:21:13;14.75;;;7.05;;
48845;SDS011;34665;51.886;5.436;2022-10-23T05:23:48;14.47;;;6.70;;
48845;SDS011;34665;51.886;5.436;2022-10-23T05:26:15;12.60;;;7.30;;
48845;SDS011;34665;51.886;5.436;2022-10-23T05:28:43;16.77;;;7.37;;
48845;SDS011;34665;51.886;5.436;2022-10-23T05:31:14;12.40;;;6.50;;
48845;SDS011;34665;51.886;5.436;2022-10-23T05:33:44;22.27;;;7.67;;
48845;SDS011;34665;51.886;5.436;2022-10-23T05:36:10;18.80;;;7.18;;
48845;SDS011;34665;51.886;5.436;2022-10-23T05:38:38;13.80;;;6.23;;
48845;SDS011;34665;51.886;5.436;2022-10-23T05:41:11;19.03;;;6.47;;
48845;SDS011;34665;51.886;5.436;2022-10-23T05:43:36;18.45;;;7.78;;
48845;SDS011;34665;51.886;5.436;2022-10-23T05:46:08;17.23;;;7.07;;
48845;SDS011;34665;51.886;5.436;2022-10-23T05:48:51;19.23;;;6.90;;
48845;SDS011;34665;51.886;5.436;2022-10-23T05:51:38;13.37;;;6.43;;
48845;SDS011;34665;51.886;5.436;2022-10-23T05:54:19;16.90;;;7.73;;
48845;SDS011;34665;51.886;5.436;2022-10-23T05:57:02;15.80;;;6.87;;
48845;SDS011;34665;51.886;5.436;2022-10-23T05:59:31;12.00;;;7.13;;
48845;SDS011;34665;51.886;5.436;2022-10-23T06:02:01;14.50;;;7.30;;
48845;SDS011;34665;51.886;5.436;2022-10-23T06:04:42;15.13;;;6.47;;
48845;SDS011;34665;51.886;5.436;2022-10-23T06:07:27;19.70;;;7.23;;
48845;SDS011;34665;51.886;5.436;2022-10-23T06:09:54;12.87;;;7.03;;
48845;SDS011;34665;51.886;5.436;2022-10-23T06:12:20;15.65;;;7.72;;
48845;SDS011;34665;51.886;5.436;2022-10-23T06:14:49;18.40;;;6.93;;
48845;SDS011;34665;51.886;5.436;2022-10-23T06:17:15;14.93;;;6.78;;
48845;SDS011;34665;51.886;5.436;2022-10-23T06:19:43;16.23;;;7.17;;
48845;SDS011;34665;51.886;5.436;2022-10-23T06:22:09;23.70;;;7.20;;
48845;SDS011;34665;51.886;5.436;2022-10-23T06:24:45;12.47;;;6.43;;
48845;SDS011;34665;51.886;5.436;2022-10-23T06:27:16;15.97;;;7.10;;
48845;SDS011;34665;51.886;5.436;2022-10-23T06:29:44;21.23;;;8.00;;
48845;SDS011;34665;51.886;5.436;2022-10-23T06:32:10;22.13;;;7.57;;
48845;SDS011;34665;51.886;5.436;2022-10-23T06:34:36;23.67;;;7.43;;
48845;SDS011;34665;51.886;5.436;2022-10-23T06:37:05;13.90;;;6.73;;
48845;SDS011;34665;51.886;5.436;2022-10-23T06:39:54;19.67;;;7.63;;
48845;SDS011;34665;51.886;5.436;2022-10-23T06:42:28;17.97;;;7.77;;
48845;SDS011;34665;51.886;5.436;2022-10-23T06:44:54;15.32;;;7.53;;
48845;SDS011;34665;51.886;5.436;2022-10-23T06:47:39;17.27;;;6.37;;
48845;SDS011;34665;51.886;5.436;2022-10-23T06:50:43;20.60;;;7.43;;
48845;SDS011;34665;51.886;5.436;2022-10-23T06:53:13;21.90;;;7.17;;
48845;SDS011;34665;51.886;5.436;2022-10-23T06:55:45;15.73;;;7.07;;
48845;SDS011;34665;51.886;5.436;2022-10-23T06:58:11;15.82;;;7.40;;
48845;SDS011;34665;51.886;5.436;2022-10-23T07:00:53;19.50;;;7.43;;
48845;SDS011;34665;51.886;5.436;2022-10-23T07:03:18;14.33;;;6.70;;
48845;SDS011;34665;51.886;5.436;2022-10-23T07:05:44;19.58;;;7.10;;
48845;SDS011;34665;51.886;5.436;2022-10-23T07:08:12;20.57;;;7.10;;
48845;SDS011;34665;51.886;5.436;2022-10-23T07:10:40;14.13;;;6.93;;
48845;SDS011;34665;51.886;5.436;2022-10-23T07:13:10;17.10;;;7.03;;
48845;SDS011;34665;51.886;5.436;2022-10-23T07:15:39;21.33;;;7.00;;
48845;SDS011;34665;51.886;5.436;2022-10-23T07:18:08;12.33;;;6.50;;
48845;SDS011;34665;51.886;5.436;2022-10-23T07:20:59;16.37;;;6.97;;
48845;SDS011;34665;51.886;5.436;2022-10-23T07:23:24;13.60;;;6.47;;
48845;SDS011;34665;51.886;5.436;2022-10-23T07:25:50;22.10;;;7.05;;
48845;SDS011;34665;51.886;5.436;2022-10-23T07:28:20;19.67;;;7.43;;
48845;SDS011;34665;51.886;5.436;2022-10-23T07:30:56;13.85;;;7.57;;
48845;SDS011;34665;51.886;5.436;2022-10-23T07:33:26;12.60;;;6.33;;
48845;SDS011;34665;51.886;5.436;2022-10-23T07:36:06;15.30;;;6.73;;
48845;SDS011;34665;51.886;5.436;2022-10-23T07:38:34;19.17;;;6.53;;
48845;SDS011;34665;51.886;5.436;2022-10-23T07:41:00;14.73;;;6.67;;
48845;SDS011;34665;51.886;5.436;2022-10-23T07:43:26;15.18;;;6.30;;
48845;SDS011;34665;51.886;5.436;2022-10-23T07:45:52;13.52;;;5.30;;
48845;SDS011;34665;51.886;5.436;2022-10-23T07:48:24;17.33;;;5.90;;
48845;SDS011;34665;51.886;5.436;2022-10-23T07:51:00;10.93;;;6.13;;
48845;SDS011;34665;51.886;5.436;2022-10-23T07:53:34;19.20;;;6.13;;
48845;SDS011;34665;51.886;5.436;2022-10-23T07:56:15;19.03;;;6.33;;
48845;SDS011;34665;51.886;5.436;2022-10-23T07:59:13;13.53;;;6.07;;
48845;SDS011;34665;51.886;5.436;2022-10-23T08:01:41;12.80;;;5.47;;
48845;SDS011;34665;51.886;5.436;2022-10-23T08:04:09;21.03;;;6.23;;
48845;SDS011;34665;51.886;5.436;2022-10-23T08:06:42;10.17;;;6.30;;
48845;SDS011;34665;51.886;5.436;2022-10-23T08:09:08;17.27;;;6.38;;
48845;SDS011;34665;51.886;5.436;2022-10-23T08:11:36;10.80;;;5.57;;
48845;SDS011;34665;51.886;5.436;2022-10-23T08:14:05;14.87;;;6.47;;
48845;SDS011;34665;51.886;5.436;2022-10-23T08:16:33;17.07;;;5.90;;
48845;SDS011;34665;51.886;5.436;2022-10-23T08:19:13;15.67;;;6.23;;
48845;SDS011;34665;51.886;5.436;2022-10-23T08:21:39;10.07;;;5.53;;
48845;SDS011;34665;51.886;5.436;2022-10-23T08:24:06;14.07;;;5.43;;
48845;SDS011;34665;51.886;5.436;2022-10-23T08:26:32;10.43;;;5.75;;
48845;SDS011;34665;51.886;5.436;2022-10-23T08:28:58;18.23;;;5.45;;
48845;SDS011;34665;51.886;5.436;2022-10-23T08:31:25;15.90;;;5.70;;
48845;SDS011;34665;51.886;5.436;2022-10-23T08:34:26;15.63;;;6.03;;
48845;SDS011;34665;51.886;5.436;2022-10-23T08:36:53;12.23;;;5.00;;
48845;SDS011;34665;51.886;5.436;2022-10-23T08:39:18;16.35;;;5.97;;
48845;SDS011;34665;51.886;5.436;2022-10-23T08:42:04;17.00;;;5.20;;
48845;SDS011;34665;51.886;5.436;2022-10-23T08:44:42;9.23;;;4.43;;
48845;SDS011;34665;51.886;5.436;2022-10-23T08:47:20;12.83;;;4.97;;
48845;SDS011;34665;51.886;5.436;2022-10-23T08:50:19;9.63;;;4.27;;
48845;SDS011;34665;51.886;5.436;2022-10-23T08:52:51;14.87;;;5.10;;
48845;SDS011;34665;51.886;5.436;2022-10-23T08:55:26;13.30;;;4.93;;
48845;SDS011;34665;51.886;5.436;2022-10-23T09:00:46;10.87;;;4.87;;
48845;SDS011;34665;51.886;5.436;2022-10-23T09:03:13;12.83;;;4.27;;
48845;SDS011;34665;51.886;5.436;2022-10-23T09:05:47;9.70;;;4.18;;
48845;SDS011;34665;51.886;5.436;2022-10-23T09:08:39;12.27;;;4.53;;
48845;SDS011;34665;51.886;5.436;2022-10-23T09:11:26;11.50;;;4.97;;
48845;SDS011;34665;51.886;5.436;2022-10-23T09:17:11;9.60;;;4.20;;
48845;SDS011;34665;51.886;5.436;2022-10-23T09:19:49;15.57;;;4.70;;
48845;SDS011;34665;51.886;5.436;2022-10-23T09:22:22;11.47;;;4.23;;
48845;SDS011;34665;51.886;5.436;2022-10-23T09:24:48;10.07;;;4.70;;
48845;SDS011;34665;51.886;5.436;2022-10-23T09:27:15;9.70;;;4.87;;
48845;SDS011;34665;51.886;5.436;2022-10-23T09:29:51;8.70;;;4.60;;
48845;SDS011;34665;51.886;5.436;2022-10-23T09:34:51;13.03;;;4.23;;
48845;SDS011;34665;51.886;5.436;2022-10-23T09:37:22;18.73;;;4.40;;
48845;SDS011;34665;51.886;5.436;2022-10-23T09:40:13;8.57;;;4.33;;
48845;SDS011;34665;51.886;5.436;2022-10-23T09:42:49;11.70;;;4.50;;
48845;SDS011;34665;51.886;5.436;2022-10-23T09:45:32;11.83;;;3.73;;
48845;SDS011;34665;51.886;5.436;2022-10-23T09:48:05;8.53;;;4.60;;
48845;SDS011;34665;51.886;5.436;2022-10-23T09:50:41;11.03;;;3.70;;
48845;SDS011;34665;51.886;5.436;2022-10-23T09:53:16;7.10;;;3.87;;
48845;SDS011;34665;51.886;5.436;2022-10-23T09:55:50;8.97;;;4.10;;
48845;SDS011;34665;51.886;5.436;2022-10-23T09:58:41;9.90;;;4.10;;
48845;SDS011;34665;51.886;5.436;2022-10-23T10:01:21;9.40;;;4.83;;
48845;SDS011;34665;51.886;5.436;2022-10-23T10:03:49;13.87;;;4.70;;
48845;SDS011;34665;51.886;5.436;2022-10-23T10:06:26;8.90;;;3.90;;
48845;SDS011;34665;51.886;5.436;2022-10-23T10:08:57;8.53;;;4.13;;
48845;SDS011;34665;51.886;5.436;2022-10-23T10:17:22;7.37;;;4.03;;
48845;SDS011;34665;51.886;5.436;2022-10-23T10:20:02;7.33;;;4.20;;
48845;SDS011;34665;51.886;5.436;2022-10-23T10:28:15;10.73;;;3.60;;
48845;SDS011;34665;51.886;5.436;2022-10-23T10:39:57;10.90;;;4.00;;
48845;SDS011;34665;51.886;5.436;2022-10-23T10:51:32;14.48;;;3.58;;
48845;SDS011;34665;51.886;5.436;2022-10-23T10:54:17;9.23;;;3.87;;
48845;SDS011;34665;51.886;5.436;2022-10-23T10:56:55;12.30;;;3.43;;
48845;SDS011;34665;51.886;5.436;2022-10-23T11:01:55;8.97;;;3.07;;
48845;SDS011;34665;51.886;5.436;2022-10-23T11:04:30;10.60;;;3.70;;
48845;SDS011;34665;51.886;5.436;2022-10-23T11:07:12;12.70;;;3.97;;
48845;SDS011;34665;51.886;5.436;2022-10-23T11:09:41;9.50;;;3.30;;
48845;SDS011;34665;51.886;5.436;2022-10-23T11:12:15;9.20;;;3.47;;
48845;SDS011;34665;51.886;5.436;2022-10-23T11:14:43;8.50;;;3.20;;
48845;SDS011;34665;51.886;5.436;2022-10-23T11:17:10;12.95;;;4.07;;
48845;SDS011;34665;51.886;5.436;2022-10-23T11:19:48;17.00;;;3.47;;
48845;SDS011;34665;51.886;5.436;2022-10-23T11:23:04;15.27;;;3.30;;
48845;SDS011;34665;51.886;5.436;2022-10-23T11:28:18;13.13;;;4.20;;
48845;SDS011;34665;51.886;5.436;2022-10-23T11:31:22;11.87;;;3.90;;
48845;SDS011;34665;51.886;5.436;2022-10-23T11:36:58;6.82;;;2.80;;
48845;SDS011;34665;51.886;5.436;2022-10-23T11:39:26;6.33;;;2.97;;
48845;SDS011;34665;51.886;5.436;2022-10-23T11:44:43;8.03;;;2.40;;
48845;SDS011;34665;51.886;5.436;2022-10-23T11:47:26;10.63;;;3.30;;
48845;SDS011;34665;51.886;5.436;2022-10-23T11:52:32;12.50;;;3.00;;
48845;SDS011;34665;51.886;5.436;2022-10-23T11:55:54;6.70;;;2.73;;
48845;SDS011;34665;51.886;5.436;2022-10-23T12:00:29;8.37;;;3.20;;
48845;SDS011;34665;51.886;5.436;2022-10-23T12:02:58;11.33;;;2.70;;
48845;SDS011;34665;51.886;5.436;2022-10-23T12:05:30;10.50;;;3.17;;
48845;SDS011;34665;51.886;5.436;2022-10-23T12:08:00;7.80;;;2.50;;
48845;SDS011;34665;51.886;5.436;2022-10-23T12:10:31;8.10;;;3.23;;
48845;SDS011;34665;51.886;5.436;2022-10-23T12:13:00;7.27;;;2.70;;
48845;SDS011;34665;51.886;5.436;2022-10-23T12:15:28;12.13;;;2.40;;
48845;SDS011;34665;51.886;5.436;2022-10-23T12:17:54;5.90;;;2.78;;
48845;SDS011;34665;51.886;5.436;2022-10-23T12:20:43;5.93;;;2.47;;
48845;SDS011;34665;51.886;5.436;2022-10-23T12:23:33;8.23;;;2.83;;
48845;SDS011;34665;51.886;5.436;2022-10-23T12:26:27;12.27;;;2.70;;
48845;SDS011;34665;51.886;5.436;2022-10-23T12:32:24;10.90;;;3.20;;
48845;SDS011;34665;51.886;5.436;2022-10-23T12:40:16;6.57;;;3.13;;
48845;SDS011;34665;51.886;5.436;2022-10-23T12:45:17;10.13;;;2.87;;
48845;SDS011;34665;51.886;5.436;2022-10-23T12:47:48;7.60;;;2.87;;
48845;SDS011;34665;51.886;5.436;2022-10-23T12:50:25;14.03;;;3.00;;
48845;SDS011;34665;51.886;5.436;2022-10-23T12:52:55;7.93;;;3.10;;
48845;SDS011;34665;51.886;5.436;2022-10-23T12:55:24;13.57;;;3.27;;
48845;SDS011;34665;51.886;5.436;2022-10-23T12:57:50;10.60;;;3.63;;
48845;SDS011;34665;51.886;5.436;2022-10-23T13:00:18;8.20;;;2.80;;
48845;SDS011;34665;51.886;5.436;2022-10-23T13:02:56;7.87;;;2.93;;
48845;SDS011;34665;51.886;5.436;2022-10-23T13:05:22;9.13;;;3.40;;
48845;SDS011;34665;51.886;5.436;2022-10-23T13:07:49;6.70;;;2.57;;
48845;SDS011;34665;51.886;5.436;2022-10-23T13:10:22;10.00;;;2.97;;
48845;SDS011;34665;51.886;5.436;2022-10-23T13:12:54;4.73;;;2.60;;
48845;SDS011;34665;51.886;5.436;2022-10-23T13:15:21;8.03;;;3.53;;
48845;SDS011;34665;51.886;5.436;2022-10-23T13:20:33;7.40;;;3.00;;
48845;SDS011;34665;51.886;5.436;2022-10-23T13:23:16;11.00;;;3.43;;
48845;SDS011;34665;51.886;5.436;2022-10-23T13:26:02;11.90;;;5.33;;
48845;SDS011;34665;51.886;5.436;2022-10-23T13:33:37;10.07;;;2.67;;
48845;SDS011;34665;51.886;5.436;2022-10-23T13:38:39;7.67;;;2.70;;
48845;SDS011;34665;51.886;5.436;2022-10-23T13:41:10;6.20;;;2.87;;
48845;SDS011;34665;51.886;5.436;2022-10-23T13:43:38;6.23;;;2.77;;
48845;SDS011;34665;51.886;5.436;2022-10-23T13:46:04;9.53;;;3.00;;
48845;SDS011;34665;51.886;5.436;2022-10-23T13:48:30;10.02;;;3.42;;
48845;SDS011;34665;51.886;5.436;2022-10-23T13:50:57;9.10;;;3.10;;
48845;SDS011;34665;51.886;5.436;2022-10-23T13:53:36;5.47;;;2.40;;
48845;SDS011;34665;51.886;5.436;2022-10-23T13:56:01;12.02;;;3.17;;
48845;SDS011;34665;51.886;5.436;2022-10-23T13:58:27;9.65;;;3.55;;
48845;SDS011;34665;51.886;5.436;2022-10-23T14:00:53;6.18;;;3.17;;
48845;SDS011;34665;51.886;5.436;2022-10-23T14:03:18;9.35;;;3.00;;
48845;SDS011;34665;51.886;5.436;2022-10-23T14:05:48;6.83;;;2.70;;
48845;SDS011;34665;51.886;5.436;2022-10-23T14:08:17;7.43;;;2.90;;
48845;SDS011;34665;51.886;5.436;2022-10-23T14:10:42;7.82;;;2.67;;
48845;SDS011;34665;51.886;5.436;2022-10-23T14:13:08;9.38;;;2.75;;
48845;SDS011;34665;51.886;5.436;2022-10-23T14:15:33;6.93;;;2.88;;
48845;SDS011;34665;51.886;5.436;2022-10-23T14:17:58;8.23;;;2.85;;
48845;SDS011;34665;51.886;5.436;2022-10-23T14:20:24;8.20;;;4.10;;
48845;SDS011;34665;51.886;5.436;2022-10-23T14:22:49;8.88;;;3.53;;
48845;SDS011;34665;51.886;5.436;2022-10-23T14:25:15;6.35;;;2.55;;
48845;SDS011;34665;51.886;5.436;2022-10-23T14:27:40;10.35;;;2.67;;
48845;SDS011;34665;51.886;5.436;2022-10-23T14:30:06;10.73;;;2.90;;
48845;SDS011;34665;51.886;5.436;2022-10-23T14:32:32;8.20;;;2.78;;
48845;SDS011;34665;51.886;5.436;2022-10-23T14:34:57;12.57;;;3.63;;
48845;SDS011;34665;51.886;5.436;2022-10-23T14:37:22;7.13;;;2.90;;
48845;SDS011;34665;51.886;5.436;2022-10-23T14:39:48;10.35;;;2.80;;
48845;SDS011;34665;51.886;5.436;2022-10-23T14:42:13;10.27;;;3.30;;
48845;SDS011;34665;51.886;5.436;2022-10-23T14:44:39;10.85;;;3.38;;
48845;SDS011;34665;51.886;5.436;2022-10-23T14:47:05;4.55;;;2.15;;
48845;SDS011;34665;51.886;5.436;2022-10-23T14:51:56;5.67;;;2.37;;
48845;SDS011;34665;51.886;5.436;2022-10-23T14:56:48;8.47;;;2.67;;
48845;SDS011;34665;51.886;5.436;2022-10-23T14:59:13;7.70;;;2.77;;
48845;SDS011;34665;51.886;5.436;2022-10-23T15:01:42;7.13;;;3.38;;
48845;SDS011;34665;51.886;5.436;2022-10-23T15:04:10;6.40;;;2.80;;
48845;SDS011;34665;51.886;5.436;2022-10-23T15:09:02;10.10;;;3.33;;
48845;SDS011;34665;51.886;5.436;2022-10-23T15:11:28;7.63;;;2.57;;
48845;SDS011;34665;51.886;5.436;2022-10-23T15:13:54;7.20;;;2.35;;
48845;SDS011;34665;51.886;5.436;2022-10-23T15:16:20;7.57;;;3.13;;
48845;SDS011;34665;51.886;5.436;2022-10-23T15:18:47;9.23;;;2.87;;
48845;SDS011;34665;51.886;5.436;2022-10-23T15:21:13;15.43;;;2.90;;
48845;SDS011;34665;51.886;5.436;2022-10-23T15:23:40;7.43;;;2.78;;
48845;SDS011;34665;51.886;5.436;2022-10-23T15:26:13;11.40;;;2.73;;
48845;SDS011;34665;51.886;5.436;2022-10-23T15:28:45;8.75;;;2.65;;
48845;SDS011;34665;51.886;5.436;2022-10-23T15:34:02;11.27;;;2.60;;
48845;SDS011;34665;51.886;5.436;2022-10-23T15:36:28;10.40;;;2.80;;
48845;SDS011;34665;51.886;5.436;2022-10-23T15:38:54;10.15;;;2.97;;
48845;SDS011;34665;51.886;5.436;2022-10-23T15:41:21;5.70;;;2.58;;
48845;SDS011;34665;51.886;5.436;2022-10-23T15:43:53;8.83;;;3.17;;
48845;SDS011;34665;51.886;5.436;2022-10-23T15:46:18;6.00;;;3.30;;
48845;SDS011;34665;51.886;5.436;2022-10-23T15:48:44;6.88;;;2.67;;
48845;SDS011;34665;51.886;5.436;2022-10-23T15:51:09;8.90;;;3.03;;
48845;SDS011;34665;51.886;5.436;2022-10-23T15:56:01;14.17;;;3.07;;
48845;SDS011;34665;51.886;5.436;2022-10-23T15:58:27;9.75;;;3.15;;
48845;SDS011;34665;51.886;5.436;2022-10-23T16:00:52;7.50;;;3.58;;
48845;SDS011;34665;51.886;5.436;2022-10-23T16:03:18;13.45;;;3.42;;
48845;SDS011;34665;51.886;5.436;2022-10-23T16:05:43;8.00;;;2.78;;
48845;SDS011;34665;51.886;5.436;2022-10-23T16:08:08;9.63;;;4.18;;
48845;SDS011;34665;51.886;5.436;2022-10-23T16:10:37;13.97;;;3.07;;
48845;SDS011;34665;51.886;5.436;2022-10-23T16:13:04;9.77;;;3.40;;
48845;SDS011;34665;51.886;5.436;2022-10-23T16:15:29;5.15;;;2.97;;
48845;SDS011;34665;51.886;5.436;2022-10-23T16:17:55;14.10;;;3.37;;
48845;SDS011;34665;51.886;5.436;2022-10-23T16:20:20;10.50;;;3.25;;
48845;SDS011;34665;51.886;5.436;2022-10-23T16:22:46;7.45;;;2.97;;
48845;SDS011;34665;51.886;5.436;2022-10-23T16:25:12;10.15;;;3.40;;
48845;SDS011;34665;51.886;5.436;2022-10-23T16:27:37;10.05;;;3.42;;
48845;SDS011;34665;51.886;5.436;2022-10-23T16:30:03;7.90;;;3.35;;
48845;SDS011;34665;51.886;5.436;2022-10-23T16:32:30;7.30;;;3.37;;
48845;SDS011;34665;51.886;5.436;2022-10-23T16:34:56;19.33;;;3.45;;
48845;SDS011;34665;51.886;5.436;2022-10-23T16:37:21;6.67;;;3.50;;
48845;SDS011;34665;51.886;5.436;2022-10-23T16:39:51;8.60;;;3.60;;
48845;SDS011;34665;51.886;5.436;2022-10-23T16:42:36;11.83;;;3.87;;
48845;SDS011;34665;51.886;5.436;2022-10-23T16:45:18;11.27;;;3.20;;
48845;SDS011;34665;51.886;5.436;2022-10-23T16:47:44;11.23;;;3.58;;
48845;SDS011;34665;51.886;5.436;2022-10-23T16:50:10;6.55;;;3.30;;
48845;SDS011;34665;51.886;5.436;2022-10-23T16:52:37;10.13;;;3.25;;
48845;SDS011;34665;51.886;5.436;2022-10-23T16:55:02;8.37;;;4.10;;